Time;durP1;ratioP1;P1;durP2;ratioP2;P2;SDS_P1;SDS_P2;PMS_P1;PMS_P2;Temp;Humidity;BMP_temperature;BMP_pressure;BME280_temperature;BME280_humidity;BME280_pressure;Samples;Min_cycle;Max_cycle;Signal;HPM_P1;HPM_P2
2023/11/25 00:11:20;;;;;;;14.70;7.10;;;;;;;0.56;92.95;96378.80;436119;1248;107080;-39
2023/11/25 00:21:36;;;;;;;8.90;4.70;;;;;;;0.67;92.89;96390.89;436322;1248;97881;-39
2023/11/25 00:31:43;;;;;;;9.90;3.80;;;;;;;0.80;92.92;96396.16;436360;1254;110782;-39
2023/11/25 00:41:49;;;;;;;12.90;5.50;;;;;;;0.82;93.01;96400.27;435811;1253;490272;-39
2023/11/25 00:51:57;;;;;;;17.60;7.10;;;;;;;0.77;93.23;96397.34;436118;1254;96638;-39
2023/11/25 01:02:03;;;;;;;10.20;5.10;;;;;;;0.74;92.96;96388.67;436276;1254;110419;-38
2023/11/25 01:32:25;;;;;;;12.00;4.70;;;;;;;0.91;93.16;96372.25;436232;1254;108738;-40
2023/11/25 01:42:32;;;;;;;10.50;5.40;;;;;;;0.83;93.20;96374.18;436508;1248;96673;-39
2023/11/25 01:52:40;;;;;;;8.70;4.70;;;;;;;0.77;93.24;96369.88;436222;1251;97470;-38
2023/11/25 02:12:57;;;;;;;7.40;4.50;;;;;;;0.86;93.56;96365.36;437429;1246;97806;-39
2023/11/25 02:23:04;;;;;;;11.30;6.40;;;;;;;0.81;93.43;96367.33;437771;1250;109641;-40
2023/11/25 02:33:12;;;;;;;12.40;6.70;;;;;;;0.70;93.56;96371.05;437602;1251;107240;-40
2023/11/25 02:43:19;;;;;;;5.90;3.70;;;;;;;0.68;93.59;96381.44;437446;1248;97890;-39
2023/11/25 02:53:26;;;;;;;20.40;11.10;;;;;;;0.69;93.64;96388.79;437621;1250;113861;-39
2023/11/25 03:03:36;;;;;;;2.70;1.60;;;;;;;0.69;93.89;96417.87;437504;1250;107885;-38
2023/11/25 03:13:44;;;;;;;2.40;1.40;;;;;;;0.56;94.16;96437.34;437413;1250;97880;-39
2023/11/25 03:23:52;;;;;;;3.70;2.50;;;;;;;0.44;94.68;96462.79;437574;1248;107385;-38
2023/11/25 03:33:59;;;;;;;5.20;3.30;;;;;;;0.33;94.80;96471.41;437519;1250;97873;-39
2023/11/25 03:54:13;;;;;;;6.00;3.60;;;;;;;0.16;95.24;96513.70;437605;1250;110699;-38
2023/11/25 04:04:20;;;;;;;4.90;3.50;;;;;;;0.15;95.37;96526.66;437529;1246;107063;-39
2023/11/25 04:14:27;;;;;;;7.30;4.60;;;;;;;0.13;95.14;96547.04;437622;1247;96583;-39
2023/11/25 04:24:34;;;;;;;6.40;4.80;;;;;;;-0.03;95.11;96561.48;437683;1250;108113;-40
2023/11/25 04:34:41;;;;;;;6.90;4.70;;;;;;;-0.23;94.96;96584.90;437670;1247;97858;-38
2023/11/25 04:44:49;;;;;;;4.00;3.20;;;;;;;-0.38;95.03;96603.59;437558;1247;109390;-38
2023/11/25 04:54:55;;;;;;;5.90;3.50;;;;;;;-0.41;94.97;96626.30;437504;1250;107819;-39
2023/11/25 05:05:03;;;;;;;7.70;5.50;;;;;;;-0.44;95.07;96635.59;437532;1250;97557;-38
2023/11/25 05:15:10;;;;;;;5.20;3.80;;;;;;;-0.46;94.90;96645.23;437569;1250;110558;-39
2023/11/25 05:25:16;;;;;;;6.80;5.40;;;;;;;-0.44;94.97;96668.42;437717;1247;107537;-38
2023/11/25 05:35:22;;;;;;;4.70;3.50;;;;;;;-0.42;94.77;96682.70;437651;1250;97466;-38
2023/11/25 05:45:30;;;;;;;10.10;5.00;;;;;;;-0.46;94.75;96705.29;437585;1251;107811;-39
2023/11/25 05:55:37;;;;;;;15.50;9.10;;;;;;;-0.53;94.93;96716.77;437926;1246;96581;-40
2023/11/25 06:05:42;;;;;;;7.70;5.20;;;;;;;-0.47;94.78;96739.28;437585;1250;97486;-39
2023/11/25 06:15:47;;;;;;;6.20;3.70;;;;;;;-0.45;94.77;96751.75;437159;1247;107450;-39
2023/11/25 06:36:00;;;;;;;13.30;6.30;;;;;;;-0.45;94.59;96783.55;436738;1251;111554;-41
2023/11/25 06:46:06;;;;;;;13.40;7.00;;;;;;;-0.51;94.45;96797.89;436944;1247;107265;-40
2023/11/25 07:06:20;;;;;;;11.10;6.30;;;;;;;-0.27;94.27;96826.42;436906;1254;110240;-40
2023/11/25 07:16:27;;;;;;;14.40;7.90;;;;;;;-0.25;94.35;96839.98;436783;1251;119841;-39
2023/11/25 07:46:47;;;;;;;13.50;7.20;;;;;;;-0.13;94.16;96865.63;436648;1251;107110;-40
2023/11/25 07:56:55;;;;;;;16.80;9.80;;;;;;;0.03;94.34;96872.39;436735;1251;97450;-40
2023/11/25 08:07:02;;;;;;;15.50;8.80;;;;;;;0.13;94.10;96873.64;436634;1252;110324;-42
2023/11/25 08:17:09;;;;;;;11.50;8.40;;;;;;;0.18;93.90;96883.77;436595;1247;107643;-41
2023/11/25 08:27:16;;;;;;;14.90;9.10;;;;;;;0.24;93.97;96898.50;436690;1247;97133;-40
2023/11/25 08:37:27;;;;;;;13.30;7.70;;;;;;;0.22;93.97;96922.54;436700;1251;110850;-39
2023/11/25 08:47:35;;;;;;;27.50;16.40;;;;;;;0.27;94.09;96934.57;436801;1251;108997;-40
2023/11/25 08:57:41;;;;;;;10.40;7.80;;;;;;;0.50;93.98;96932.15;436672;1252;106795;-39
2023/11/25 09:07:50;;;;;;;8.00;6.20;;;;;;;0.81;93.88;96945.80;436750;1248;97483;-40
2023/11/25 09:17:57;;;;;;;13.70;7.70;;;;;;;0.90;93.61;96957.39;437308;1250;107485;-39
2023/11/25 09:38:10;;;;;;;11.50;6.10;;;;;;;0.82;93.14;96965.45;437528;1250;109648;-39
2023/11/25 09:48:17;;;;;;;10.90;5.90;;;;;;;0.81;93.27;96967.70;437620;1248;108012;-39
2023/11/25 09:58:26;;;;;;;13.60;9.60;;;;;;;0.68;93.06;96983.60;437531;1250;97885;-40
2023/11/25 10:18:40;;;;;;;9.50;5.70;;;;;;;0.68;92.98;96995.66;437081;1250;108016;-41
2023/11/25 10:28:47;;;;;;;9.40;6.30;;;;;;;0.94;92.98;96988.24;436912;1253;97864;-39
2023/11/25 10:38:56;;;;;;;9.10;6.30;;;;;;;1.09;92.88;96987.36;437063;1252;109761;-39
2023/11/25 10:49:04;;;;;;;9.20;5.50;;;;;;;1.01;92.60;96992.49;437205;1253;107902;-41
2023/11/25 11:09:19;;;;;;;7.20;5.00;;;;;;;1.05;92.27;97018.50;437037;1254;109979;-41
2023/11/25 11:19:24;;;;;;;9.30;4.90;;;;;;;1.00;92.21;97010.65;436983;1252;106918;-42
2023/11/25 11:29:37;;;;;;;8.30;5.30;;;;;;;0.91;91.57;97008.44;436948;1248;97894;-40
2023/11/25 11:39:58;;;;;;;7.80;5.30;;;;;;;0.93;91.48;97008.22;437020;1248;108387;-39
2023/11/25 12:00:15;;;;;;;11.30;7.80;;;;;;;0.83;91.24;97005.88;436738;1253;96567;-39
2023/11/25 12:10:23;;;;;;;18.60;9.40;;;;;;;0.93;91.28;97008.98;436652;1247;109617;-40
2023/11/25 12:20:31;;;;;;;9.50;5.80;;;;;;;1.05;91.12;97003.40;436645;1251;107391;-39
2023/11/25 12:40:44;;;;;;;22.20;12.10;;;;;;;1.09;91.06;97003.13;436732;1248;97871;-40
2023/11/25 12:51:07;;;;;;;9.10;4.90;;;;;;;1.11;90.60;97004.12;436243;1254;391878;-40
2023/11/25 13:01:15;;;;;;;9.30;4.20;;;;;;;1.12;90.31;97005.98;436648;1248;96933;-39
2023/11/25 13:11:22;;;;;;;20.80;10.60;;;;;;;1.10;90.21;97008.57;436726;1261;109355;-38
2023/11/25 13:21:29;;;;;;;17.50;9.50;;;;;;;0.94;90.08;97011.30;436865;1254;97847;-40
2023/11/25 13:41:42;;;;;;;9.20;4.40;;;;;;;0.77;89.73;97016.27;437058;1254;110440;-40
2023/11/25 13:51:51;;;;;;;8.90;5.90;;;;;;;0.71;89.82;97027.69;437011;1253;107011;-40
2023/11/25 14:01:59;;;;;;;11.80;6.00;;;;;;;0.63;90.01;97041.48;436925;1254;97473;-40
2023/11/25 14:12:07;;;;;;;36.20;16.40;;;;;;;0.52;90.12;97053.02;437225;1253;109096;-38
2023/11/25 14:22:15;;;;;;;10.00;5.20;;;;;;;0.51;89.92;97058.41;437054;1253;107542;-39
2023/11/25 14:32:23;;;;;;;24.70;15.30;;;;;;;0.48;89.79;97056.27;436986;1248;97737;-42
2023/11/25 14:42:33;;;;;;;22.30;12.20;;;;;;;0.52;90.30;97058.59;437046;1261;110490;-39
2023/11/25 14:52:40;;;;;;;17.10;8.60;;;;;;;0.49;90.24;97060.35;436840;1253;107171;-41
2023/11/25 15:02:46;;;;;;;13.60;7.10;;;;;;;0.31;89.90;97065.89;436971;1252;108371;-39
2023/11/25 15:12:55;;;;;;;13.10;9.50;;;;;;;0.15;89.86;97071.88;436975;1252;97909;-40
2023/11/25 15:23:03;;;;;;;9.50;5.90;;;;;;;0.16;90.06;97082.63;436902;1248;107714;-39
2023/11/25 15:43:18;;;;;;;22.50;11.20;;;;;;;0.13;90.38;97090.36;436882;1248;97880;-41
2023/11/25 15:53:25;;;;;;;18.10;9.60;;;;;;;-0.04;90.12;97097.11;436860;1261;109962;-39
2023/11/25 16:03:32;;;;;;;15.40;9.50;;;;;;;-0.10;90.24;97103.63;436871;1248;107562;-40
2023/11/25 16:13:40;;;;;;;18.00;11.80;;;;;;;0.02;90.40;97098.88;436676;1261;97864;-39
2023/11/25 16:23:47;;;;;;;21.90;14.10;;;;;;;0.09;90.43;97103.48;436541;1251;110682;-40
2023/11/25 16:33:55;;;;;;;25.30;13.30;;;;;;;0.01;90.67;97104.02;436582;1253;107182;-39
2023/11/25 16:54:07;;;;;;;13.80;9.80;;;;;;;-0.06;90.67;97108.17;436486;1254;97909;-40
2023/11/25 17:04:14;;;;;;;14.60;9.50;;;;;;;0.00;90.85;97105.31;436630;1252;107437;-40
2023/11/25 17:24:29;;;;;;;22.80;14.10;;;;;;;0.05;91.01;97106.84;436603;1251;109626;-38
2023/11/25 17:34:37;;;;;;;19.90;12.00;;;;;;;0.02;91.27;97116.71;436487;1261;108523;-40
2023/11/25 17:44:44;;;;;;;27.50;14.00;;;;;;;-0.04;91.29;97117.48;436596;1248;96615;-40
2023/11/25 18:15:04;;;;;;;24.40;13.00;;;;;;;0.09;91.35;97121.55;436881;1247;96694;-39
2023/11/25 18:25:10;;;;;;;37.30;21.50;;;;;;;0.09;91.67;97122.58;436809;1251;109905;-38
2023/11/25 18:35:18;;;;;;;33.10;17.10;;;;;;;-0.01;91.56;97126.34;436781;1251;107442;-39
2023/11/25 18:55:31;;;;;;;14.70;9.30;;;;;;;0.11;91.66;97137.50;436656;1251;97972;-39
2023/11/25 19:05:38;;;;;;;29.00;13.80;;;;;;;0.24;91.86;97140.45;436646;1251;108244;-39
2023/11/25 19:15:46;;;;;;;23.40;12.70;;;;;;;0.27;92.13;97154.27;436677;1251;96671;-38
2023/11/25 19:25:54;;;;;;;22.30;14.00;;;;;;;0.26;92.19;97160.02;436679;1248;96635;-39
2023/11/25 19:36:02;;;;;;;43.90;23.00;;;;;;;0.13;92.09;97149.80;436685;1251;110702;-39
2023/11/25 19:46:08;;;;;;;18.00;11.30;;;;;;;0.12;92.09;97154.05;436502;1251;110237;-39
2023/11/25 19:56:13;;;;;;;22.70;12.60;;;;;;;0.22;92.01;97154.00;436481;1251;97935;-41
2023/11/25 20:06:20;;;;;;;16.80;10.50;;;;;;;0.21;92.25;97155.48;436764;1247;110427;-39
2023/11/25 20:36:42;;;;;;;47.20;20.60;;;;;;;0.07;92.45;97143.81;436667;1251;110058;-38
2023/11/25 20:46:48;;;;;;;23.20;13.00;;;;;;;0.02;92.44;97147.73;436465;1247;108544;-38
2023/11/25 21:07:02;;;;;;;36.50;18.90;;;;;;;0.19;92.68;97146.40;436435;1251;109114;-40
2023/11/25 21:17:08;;;;;;;52.80;23.50;;;;;;;0.18;92.86;97142.56;436420;1251;107217;-39
2023/11/25 21:37:21;;;;;;;22.10;13.70;;;;;;;0.06;93.12;97149.48;436497;1251;109731;-41
2023/11/25 21:47:29;;;;;;;14.70;9.00;;;;;;;0.15;93.10;97146.45;436533;1247;107817;-39
2023/11/25 21:57:36;;;;;;;22.80;12.50;;;;;;;0.25;93.31;97157.91;436492;1248;97864;-40
2023/11/25 22:07:42;;;;;;;18.50;9.80;;;;;;;-0.05;93.19;97184.29;436613;1251;108274;-40
2023/11/25 22:17:49;;;;;;;11.30;5.40;;;;;;;-0.31;93.29;97205.65;436565;1251;97450;-41
2023/11/25 22:27:55;;;;;;;12.90;6.30;;;;;;;-0.41;93.06;97213.38;436662;1251;97868;-39
2023/11/25 22:38:03;;;;;;;8.50;4.00;;;;;;;-0.42;93.20;97225.23;436512;1248;108835;-39
2023/11/25 22:48:09;;;;;;;11.60;5.10;;;;;;;-0.46;93.21;97222.95;436539;1251;97782;-40
2023/11/25 22:58:16;;;;;;;14.10;6.70;;;;;;;-0.54;93.31;97228.66;436577;1251;109278;-39
2023/11/25 23:08:23;;;;;;;26.90;9.80;;;;;;;-0.68;93.56;97234.95;436537;1251;109346;-40
2023/11/25 23:18:30;;;;;;;14.80;8.00;;;;;;;-0.71;93.40;97235.33;436503;1251;106800;-39
2023/11/25 23:28:37;;;;;;;11.70;8.00;;;;;;;-0.66;93.43;97238.20;436618;1251;97854;-39
2023/11/25 23:38:45;;;;;;;8.20;4.90;;;;;;;-0.62;93.78;97243.69;436456;1247;107124;-38
2023/11/25 23:48:52;;;;;;;16.00;9.10;;;;;;;-0.62;93.83;97252.71;436652;1251;97874;-39
2023/11/25 23:59:00;;;;;;;16.50;8.80;;;;;;;-0.68;94.04;97247.61;436599;1248;97769;-39
